Time;durP1;ratioP1;P1;durP2;ratioP2;P2;SDS_P1;SDS_P2;PMS_P1;PMS_P2;Temp;Humidity;BMP_temperature;BMP_pressure;BME280_temperature;BME280_humidity;BME280_pressure;Samples;Min_cycle;Max_cycle;Signal;HPM_P1;HPM_P2
2022/07/20 00:01:44;;;;;;;9.00;6.45;;;23.10;99.90;;;;;;5063222;28;20219;-78
2022/07/20 00:04:32;;;;;;;8.60;5.90;;;23.10;99.90;;;;;;5062631;28;20224;-78
2022/07/20 00:07:21;;;;;;;9.07;5.93;;;23.10;99.90;;;;;;5064588;28;20228;-78
2022/07/20 00:13:22;;;;;;;7.63;6.03;;;23.00;99.90;;;;;;5021498;28;20227;-78
2022/07/20 00:16:11;;;;;;;6.88;6.15;;;23.00;99.90;;;;;;5049142;28;20220;-79
2022/07/20 00:19:01;;;;;;;7.03;5.60;;;23.00;99.90;;;;;;5064000;28;20829;-78
2022/07/20 00:21:50;;;;;;;8.40;5.90;;;22.80;99.90;;;;;;5061853;28;20216;-78
2022/07/20 00:24:39;;;;;;;12.02;5.68;;;22.80;99.90;;;;;;5065151;28;20706;-78
2022/07/20 00:27:27;;;;;;;9.15;5.53;;;22.90;99.90;;;;;;5061665;28;20223;-79
2022/07/20 00:30:16;;;;;;;7.53;5.72;;;23.00;99.90;;;;;;5069525;28;20316;-79
2022/07/20 00:33:05;;;;;;;8.07;4.93;;;22.90;99.90;;;;;;5067561;28;20682;-80
2022/07/20 00:35:55;;;;;;;9.13;5.75;;;22.80;99.90;;;;;;5052012;28;20219;-79
2022/07/20 00:38:43;;;;;;;7.78;5.65;;;22.80;99.90;;;;;;5063674;28;20224;-81
2022/07/20 00:41:33;;;;;;;7.57;6.05;;;22.70;99.90;;;;;;5074821;28;20274;-79
2022/07/20 00:44:22;;;;;;;11.88;6.20;;;22.70;99.90;;;;;;5052329;28;20213;-79
2022/07/20 00:47:10;;;;;;;10.85;5.88;;;22.70;99.90;;;;;;5063387;28;20303;-79
2022/07/20 00:49:59;;;;;;;6.95;5.90;;;22.70;99.90;;;;;;5063056;28;20232;-79
2022/07/20 00:52:49;;;;;;;7.90;5.75;;;22.60;99.90;;;;;;5103332;28;20212;-78
2022/07/20 00:55:38;;;;;;;7.72;5.65;;;22.60;99.90;;;;;;5084652;28;20215;-80
2022/07/20 00:58:26;;;;;;;8.00;5.90;;;22.60;99.90;;;;;;5065539;28;20230;-78
2022/07/20 01:01:15;;;;;;;8.73;6.05;;;22.50;99.90;;;;;;5054130;28;20622;-79
2022/07/20 01:04:05;;;;;;;8.25;5.30;;;22.50;99.90;;;;;;5050723;28;20223;-79
2022/07/20 01:06:53;;;;;;;6.78;5.50;;;22.40;99.90;;;;;;5061155;28;20232;-79
2022/07/20 01:09:44;;;;;;;7.07;5.40;;;22.40;99.90;;;;;;5049681;28;20224;-79
2022/07/20 01:12:33;;;;;;;9.13;6.05;;;22.30;99.90;;;;;;5061788;28;20225;-78
2022/07/20 01:15:21;;;;;;;9.30;5.47;;;22.30;99.90;;;;;;5055831;28;20223;-78
2022/07/20 01:18:10;;;;;;;7.13;5.57;;;22.40;99.90;;;;;;5066623;28;20256;-80
2022/07/20 01:21:02;;;;;;;6.72;5.22;;;22.30;99.90;;;;;;5063484;28;20224;-79
2022/07/20 01:23:50;;;;;;;9.65;5.80;;;22.20;99.90;;;;;;5062578;28;20332;-79
2022/07/20 01:26:40;;;;;;;6.78;5.90;;;22.20;99.90;;;;;;5050563;28;20251;-79
2022/07/20 01:29:29;;;;;;;8.00;6.10;;;22.20;99.90;;;;;;5045056;28;20212;-78
2022/07/20 01:32:18;;;;;;;9.75;6.07;;;22.10;99.90;;;;;;5047033;28;20293;-79
2022/07/20 01:35:07;;;;;;;11.15;5.97;;;22.10;99.90;;;;;;5051270;28;20220;-78
2022/07/20 01:37:57;;;;;;;11.07;5.97;;;22.10;99.90;;;;;;5047364;28;20220;-78
2022/07/20 01:40:46;;;;;;;6.88;5.38;;;22.10;99.90;;;;;;5058006;28;20231;-79
2022/07/20 01:43:35;;;;;;;9.68;5.55;;;22.00;99.90;;;;;;5047981;28;20223;-79
2022/07/20 01:46:24;;;;;;;6.25;5.30;;;21.90;99.90;;;;;;5064887;28;20216;-78
2022/07/20 01:49:12;;;;;;;7.40;5.80;;;21.80;99.90;;;;;;5063129;28;20726;-78
2022/07/20 01:52:01;;;;;;;7.38;5.97;;;21.80;99.90;;;;;;5060015;28;20225;-79
2022/07/20 01:54:52;;;;;;;8.00;6.00;;;21.70;99.90;;;;;;5060329;28;20236;-78
2022/07/20 01:57:41;;;;;;;7.10;5.93;;;21.60;99.90;;;;;;5062455;28;20224;-79
2022/07/20 02:00:29;;;;;;;7.60;5.25;;;21.60;99.90;;;;;;5075916;28;20737;-79
2022/07/20 02:03:18;;;;;;;9.15;6.30;;;21.60;99.90;;;;;;5059134;28;20212;-78
2022/07/20 02:06:07;;;;;;;10.77;5.88;;;21.70;99.90;;;;;;5049273;28;20571;-79
2022/07/20 02:08:56;;;;;;;9.75;5.78;;;21.60;99.90;;;;;;5062854;28;20227;-76
2022/07/20 02:11:46;;;;;;;7.80;6.75;;;21.60;99.90;;;;;;5059299;28;20707;-77
2022/07/20 02:14:34;;;;;;;8.00;5.63;;;21.50;99.90;;;;;;5060424;28;20547;-76
2022/07/20 02:17:23;;;;;;;10.88;6.05;;;21.50;99.90;;;;;;5062055;28;20231;-76
2022/07/20 02:20:12;;;;;;;8.85;5.80;;;21.40;99.90;;;;;;5061113;28;20242;-76
2022/07/20 02:23:01;;;;;;;8.50;6.03;;;21.40;99.90;;;;;;5060725;28;20299;-76
2022/07/20 02:25:51;;;;;;;8.88;5.50;;;21.40;99.90;;;;;;5060919;28;20232;-78
2022/07/20 02:28:41;;;;;;;9.77;6.60;;;21.30;99.90;;;;;;5060109;28;20223;-79
2022/07/20 02:31:29;;;;;;;9.82;6.07;;;21.20;99.90;;;;;;5062257;28;20220;-78
2022/07/20 02:34:21;;;;;;;14.55;6.35;;;21.10;99.90;;;;;;5033928;28;20231;-78
2022/07/20 02:37:09;;;;;;;9.15;5.85;;;21.00;99.90;;;;;;5060731;28;20797;-79
2022/07/20 02:39:58;;;;;;;8.88;6.53;;;21.00;99.90;;;;;;5042948;28;20228;-78
2022/07/20 02:42:46;;;;;;;9.75;6.30;;;20.90;99.90;;;;;;5062603;28;20224;-78
2022/07/20 02:45:36;;;;;;;8.60;6.25;;;20.80;99.90;;;;;;5044869;28;20217;-79
2022/07/20 02:48:25;;;;;;;15.20;6.50;;;20.90;99.90;;;;;;5059519;28;21057;-79
2022/07/20 02:51:13;;;;;;;8.52;6.07;;;20.90;99.90;;;;;;5055478;28;20221;-79
2022/07/20 02:54:02;;;;;;;11.55;6.22;;;20.90;99.90;;;;;;5043723;28;20228;-79
2022/07/20 02:56:51;;;;;;;8.40;6.47;;;20.90;99.90;;;;;;5056537;28;21054;-78
2022/07/20 02:59:39;;;;;;;9.68;6.32;;;20.80;99.90;;;;;;5041105;28;20213;-78
2022/07/20 03:02:29;;;;;;;10.05;6.50;;;20.80;99.90;;;;;;5040774;28;20221;-79
2022/07/20 03:05:19;;;;;;;7.90;6.38;;;20.80;99.90;;;;;;5043428;28;20220;-79
2022/07/20 03:08:07;;;;;;;7.00;5.75;;;20.80;99.90;;;;;;5027751;28;20232;-79
2022/07/20 03:10:56;;;;;;;10.10;6.38;;;20.70;99.90;;;;;;5022835;28;20600;-79
2022/07/20 03:13:45;;;;;;;10.23;6.03;;;20.60;99.90;;;;;;5050427;28;20235;-79
2022/07/20 03:16:34;;;;;;;10.15;6.40;;;20.70;99.90;;;;;;5043177;28;20213;-78
2022/07/20 03:19:24;;;;;;;11.68;6.55;;;20.70;99.90;;;;;;5046910;28;20602;-79
2022/07/20 03:22:13;;;;;;;9.93;5.72;;;20.60;99.90;;;;;;5043405;28;20241;-80
2022/07/20 03:25:01;;;;;;;8.93;6.05;;;20.70;99.90;;;;;;5040450;28;20734;-77
2022/07/20 03:27:53;;;;;;;9.35;5.90;;;20.70;99.90;;;;;;5044155;28;20260;-76
2022/07/20 03:30:41;;;;;;;8.63;5.90;;;20.60;99.90;;;;;;5054206;28;20229;-76
2022/07/20 03:33:30;;;;;;;10.90;6.35;;;20.60;99.90;;;;;;5055888;28;20223;-77
2022/07/20 03:36:20;;;;;;;11.75;6.85;;;20.60;99.90;;;;;;5042696;28;20221;-77
2022/07/20 03:39:08;;;;;;;10.00;6.38;;;20.70;99.90;;;;;;5042995;28;20228;-77
2022/07/20 03:41:57;;;;;;;12.38;6.10;;;20.60;99.90;;;;;;5027849;28;20312;-77
2022/07/20 03:44:46;;;;;;;11.63;6.60;;;20.60;99.90;;;;;;5052946;28;20305;-77
2022/07/20 03:47:35;;;;;;;9.35;6.43;;;20.60;99.90;;;;;;5042561;28;20225;-77
2022/07/20 03:50:24;;;;;;;9.90;6.70;;;20.70;99.90;;;;;;5028717;28;20232;-77
2022/07/20 03:53:14;;;;;;;9.63;6.50;;;20.70;99.90;;;;;;5045404;28;20221;-79
2022/07/20 03:56:04;;;;;;;9.88;6.30;;;20.70;99.90;;;;;;5041584;28;20231;-77
2022/07/20 03:58:52;;;;;;;9.63;6.47;;;20.70;99.90;;;;;;5049498;28;20228;-77
2022/07/20 04:01:42;;;;;;;9.82;7.57;;;20.80;99.90;;;;;;5060149;28;20651;-77
2022/07/20 04:04:30;;;;;;;10.35;6.97;;;20.80;99.90;;;;;;5048457;28;20216;-77
2022/07/20 04:07:19;;;;;;;9.35;7.10;;;21.00;99.90;;;;;;5060524;28;20220;-77
2022/07/20 04:10:09;;;;;;;11.77;7.50;;;20.90;99.90;;;;;;5062222;28;20231;-77
2022/07/20 04:12:58;;;;;;;20.60;7.30;;;20.70;99.90;;;;;;5063010;28;20228;-77
2022/07/20 04:15:46;;;;;;;11.70;7.35;;;20.80;99.90;;;;;;5043299;28;20235;-77
2022/07/20 04:18:35;;;;;;;11.95;7.47;;;20.80;99.90;;;;;;5058370;28;20212;-76
2022/07/20 04:21:23;;;;;;;8.55;6.85;;;20.90;99.90;;;;;;5047641;28;20568;-76
2022/07/20 04:24:12;;;;;;;10.23;7.28;;;20.80;99.90;;;;;;5060694;28;20224;-76
2022/07/20 04:27:03;;;;;;;9.73;7.20;;;21.00;99.90;;;;;;5058962;28;20710;-77
2022/07/20 04:29:52;;;;;;;9.70;6.70;;;21.10;99.90;;;;;;5058235;28;20232;-76
2022/07/20 04:32:40;;;;;;;11.35;7.00;;;21.10;99.90;;;;;;5065719;28;20303;-76
2022/07/20 04:35:29;;;;;;;11.77;7.03;;;21.00;99.90;;;;;;5058636;28;20630;-76
2022/07/20 04:38:18;;;;;;;12.93;7.05;;;21.20;99.90;;;;;;5060750;28;20320;-77
2022/07/20 04:41:07;;;;;;;13.05;7.35;;;21.30;99.90;;;;;;5061392;28;20220;-77
2022/07/20 04:43:57;;;;;;;9.50;6.90;;;21.30;99.90;;;;;;5060317;28;20227;-76
2022/07/20 04:46:45;;;;;;;11.13;7.10;;;21.20;99.90;;;;;;5058346;28;20220;-77
2022/07/20 04:49:34;;;;;;;13.65;7.40;;;21.30;99.90;;;;;;5076179;28;20585;-77
2022/07/20 04:52:23;;;;;;;12.27;7.05;;;21.40;99.90;;;;;;5060820;28;20216;-77
2022/07/20 04:55:11;;;;;;;11.48;7.05;;;21.50;99.90;;;;;;5074328;28;20247;-77
2022/07/20 04:58:00;;;;;;;11.13;6.82;;;21.40;99.90;;;;;;5046298;28;20944;-77
2022/07/20 05:00:50;;;;;;;12.88;7.28;;;21.50;99.90;;;;;;5054788;28;20565;-77
2022/07/20 05:03:39;;;;;;;11.02;7.30;;;21.20;99.90;;;;;;5059302;28;20216;-77
2022/07/20 05:06:29;;;;;;;11.45;6.78;;;21.30;99.90;;;;;;5051057;28;20223;-77
2022/07/20 05:09:19;;;;;;;11.07;7.15;;;21.60;99.90;;;;;;5064185;28;20224;-77
2022/07/20 05:12:09;;;;;;;12.85;7.10;;;21.70;99.90;;;;;;5043076;28;20707;-77
2022/07/20 05:14:58;;;;;;;11.70;7.05;;;;;;;;;;5048189;28;20567;-79
2022/07/20 05:17:48;;;;;;;10.25;6.82;;;21.90;99.90;;;;;;5049227;28;20701;-80
2022/07/20 05:20:37;;;;;;;9.40;7.00;;;22.00;99.90;;;;;;5059456;28;20220;-79
2022/07/20 05:23:26;;;;;;;10.68;6.47;;;22.10;99.90;;;;;;5060211;28;20220;-83
2022/07/20 05:26:14;;;;;;;12.13;7.22;;;22.30;99.90;;;;;;5063867;28;20228;-82
2022/07/20 05:29:03;;;;;;;14.95;7.25;;;22.30;99.90;;;;;;5050791;28;20220;-78
2022/07/20 05:31:52;;;;;;;12.45;7.05;;;22.80;99.90;;;;;;5056522;28;20228;-78
2022/07/20 05:34:42;;;;;;;9.63;6.05;;;23.20;99.90;;;;;;5060235;28;20246;-78
2022/07/20 05:37:31;;;;;;;11.52;6.93;;;23.20;99.90;;;;;;5062119;28;20261;-77
2022/07/20 05:40:20;;;;;;;11.60;6.20;;;22.90;99.90;;;;;;5074721;28;20212;-77
2022/07/20 05:43:08;;;;;;;15.90;5.90;;;22.70;99.90;;;;;;5060786;28;20350;-78
2022/07/20 05:45:57;;;;;;;10.63;5.72;;;22.70;99.90;;;;;;5057874;28;20220;-76
2022/07/20 05:48:46;;;;;;;10.95;5.97;;;22.70;99.90;;;;;;5061402;28;20225;-77
2022/07/20 05:51:36;;;;;;;10.05;5.85;;;22.70;99.90;;;;;;5058321;28;20201;-80
2022/07/20 05:54:25;;;;;;;11.30;6.47;;;23.00;99.90;;;;;;5044692;28;20224;-79
2022/07/20 05:57:14;;;;;;;10.30;5.93;;;23.00;99.90;;;;;;5063355;28;20228;-80
2022/07/20 06:00:03;;;;;;;8.00;5.80;;;23.10;99.90;;;;;;5061368;28;20252;-81
2022/07/20 06:02:51;;;;;;;12.85;5.95;;;23.00;99.90;;;;;;5063295;28;20327;-80
2022/07/20 06:05:40;;;;;;;8.32;5.68;;;23.10;99.90;;;;;;5058157;28;20706;-80
2022/07/20 06:08:30;;;;;;;10.75;6.05;;;24.00;99.90;;;;;;5068615;28;20675;-80
2022/07/20 06:11:18;;;;;;;9.35;6.03;;;24.20;99.90;;;;;;5048437;28;20223;-80
2022/07/20 06:14:07;;;;;;;10.52;5.93;;;23.80;99.90;;;;;;5057880;28;20223;-78
2022/07/20 06:16:56;;;;;;;8.90;6.30;;;23.80;99.90;;;;;;5055893;28;20663;-80
2022/07/20 06:19:44;;;;;;;13.70;5.93;;;23.80;99.90;;;;;;5055466;28;20508;-80
2022/07/20 06:22:33;;;;;;;9.32;5.32;;;23.70;99.90;;;;;;5044507;28;20235;-79
2022/07/20 06:25:23;;;;;;;9.25;5.18;;;23.60;99.90;;;;;;5059014;28;20306;-79
2022/07/20 06:28:12;;;;;;;9.88;5.32;;;23.70;99.90;;;;;;5059671;28;20817;-80
2022/07/20 06:31:00;;;;;;;11.15;5.00;;;23.90;99.90;;;;;;5069176;28;20231;-80
2022/07/20 06:33:49;;;;;;;9.13;5.90;;;23.70;99.90;;;;;;5059576;28;20320;-79
2022/07/20 06:36:38;;;;;;;7.28;5.05;;;23.90;99.90;;;;;;5061651;28;20212;-79
2022/07/20 06:39:27;;;;;;;11.80;5.63;;;24.00;99.90;;;;;;5056563;28;20220;-80
2022/07/20 06:42:20;;;;;;;9.80;5.50;;;24.10;99.90;;;;;;5071188;28;20855;-79
2022/07/20 06:45:09;;;;;;;6.60;5.05;;;24.30;99.90;;;;;;5057342;28;20675;-79
2022/07/20 06:47:58;;;;;;;6.85;5.30;;;24.40;99.90;;;;;;5058805;28;20235;-79
2022/07/20 06:50:48;;;;;;;5.88;4.53;;;24.60;99.90;;;;;;5058263;28;20783;-76
2022/07/20 06:53:37;;;;;;;12.23;4.90;;;24.70;99.90;;;;;;5061541;28;20212;-77
2022/07/20 06:56:26;;;;;;;8.90;5.22;;;24.70;99.90;;;;;;5058701;28;20248;-76
2022/07/20 06:59:16;;;;;;;9.77;5.00;;;24.70;99.90;;;;;;5052740;28;20339;-77
2022/07/20 07:02:05;;;;;;;7.32;5.40;;;24.90;99.90;;;;;;5058903;28;20698;-77
2022/07/20 07:04:54;;;;;;;12.20;5.50;;;24.90;99.90;;;;;;5059400;28;20320;-77
2022/07/20 07:07:43;;;;;;;8.00;5.03;;;25.10;99.90;;;;;;5062408;28;20232;-82
2022/07/20 07:10:31;;;;;;;12.13;4.80;;;25.30;99.90;;;;;;5046767;28;20247;-80
2022/07/20 07:13:20;;;;;;;8.07;4.65;;;25.50;99.40;;;;;;5061051;28;20548;-79
2022/07/20 07:16:10;;;;;;;10.57;5.05;;;25.50;98.20;;;;;;5063074;28;20224;-80
2022/07/20 07:18:59;;;;;;;10.48;5.43;;;25.50;96.20;;;;;;5067825;28;20213;-84
2022/07/20 07:21:48;;;;;;;8.32;5.85;;;25.70;96.10;;;;;;5059473;28;20216;-79
2022/07/20 07:24:37;;;;;;;9.95;4.93;;;25.90;95.50;;;;;;5048011;28;20320;-79
2022/07/20 07:27:26;;;;;;;10.18;5.07;;;25.90;93.50;;;;;;5058141;28;20213;-80
2022/07/20 07:30:15;;;;;;;12.05;6.20;;;26.00;92.40;;;;;;5045207;28;20216;-80
2022/07/20 07:33:05;;;;;;;8.05;5.22;;;26.40;92.10;;;;;;5057261;28;20224;-80
2022/07/20 07:35:54;;;;;;;7.38;5.03;;;26.60;91.00;;;;;;5038696;28;20393;-81
2022/07/20 07:38:43;;;;;;;11.63;4.95;;;26.90;90.90;;;;;;5056242;28;20223;-79
2022/07/20 07:41:32;;;;;;;12.20;5.10;;;27.20;91.10;;;;;;5046114;28;20216;-78
2022/07/20 07:44:20;;;;;;;8.25;5.32;;;27.70;88.80;;;;;;5064742;28;20769;-79
2022/07/20 07:47:09;;;;;;;11.40;5.60;;;28.00;87.30;;;;;;5064481;28;20220;-78
2022/07/20 07:49:59;;;;;;;11.90;4.80;;;28.60;85.50;;;;;;5066390;28;20226;-76
2022/07/20 07:52:47;;;;;;;12.43;4.72;;;29.00;82.20;;;;;;5069921;28;20217;-78
2022/07/20 07:55:44;;;;;;;5.70;4.55;;;29.20;81.00;;;;;;5057779;28;20228;-79
2022/07/20 07:58:33;;;;;;;7.10;5.07;;;29.70;77.80;;;;;;5062273;28;20370;-76
2022/07/20 08:01:22;;;;;;;8.27;4.50;;;29.90;73.70;;;;;;5055637;28;20228;-77
2022/07/20 08:04:11;;;;;;;6.72;5.10;;;30.30;72.30;;;;;;5072235;28;20232;-78
2022/07/20 08:07:01;;;;;;;5.63;4.78;;;30.30;71.40;;;;;;5056905;28;20227;-79
2022/07/20 08:09:50;;;;;;;7.00;4.70;;;30.60;71.90;;;;;;5044208;28;20307;-76
2022/07/20 08:12:39;;;;;;;6.93;4.63;;;31.30;71.50;;;;;;5055348;28;20733;-78
2022/07/20 08:15:27;;;;;;;6.68;4.88;;;31.30;66.80;;;;;;5062339;28;20224;-82
2022/07/20 08:18:16;;;;;;;7.28;4.93;;;31.80;68.20;;;;;;5064993;28;20223;-76
2022/07/20 08:21:06;;;;;;;12.20;5.25;;;32.00;68.10;;;;;;5061998;28;20964;-77
2022/07/20 08:23:56;;;;;;;12.23;5.15;;;32.10;66.30;;;;;;5073862;28;20218;-77
2022/07/20 08:26:44;;;;;;;15.73;6.18;;;32.40;67.00;;;;;;5054870;28;20567;-77
2022/07/20 08:29:33;;;;;;;12.90;5.43;;;32.70;66.70;;;;;;5060070;28;20230;-80
2022/07/20 08:32:21;;;;;;;10.15;4.85;;;32.80;64.60;;;;;;5073131;28;20208;-76
2022/07/20 08:35:11;;;;;;;7.00;4.80;;;33.00;64.30;;;;;;5066951;28;20219;-77
2022/07/20 08:38:00;;;;;;;9.60;5.00;;;33.30;63.50;;;;;;5062560;28;20219;-77
2022/07/20 08:40:50;;;;;;;6.40;4.80;;;32.80;59.60;;;;;;5062606;28;20724;-77
2022/07/20 08:43:39;;;;;;;8.05;4.40;;;33.20;60.60;;;;;;5071701;28;20231;-77
2022/07/20 08:46:31;;;;;;;8.27;4.30;;;33.00;60.20;;;;;;5063292;28;20208;-78
2022/07/20 08:49:20;;;;;;;7.60;4.13;;;32.60;61.90;;;;;;5050069;28;20720;-77
2022/07/20 08:52:09;;;;;;;6.72;4.45;;;33.10;59.40;;;;;;5046233;28;20958;-77
2022/07/20 08:54:58;;;;;;;8.07;4.70;;;;;;;;;;5061461;28;20235;-81
2022/07/20 08:57:49;;;;;;;12.73;4.50;;;34.00;57.40;;;;;;5071786;28;20243;-78
2022/07/20 09:00:37;;;;;;;7.82;4.95;;;34.40;60.60;;;;;;5078566;28;20211;-79
2022/07/20 09:03:26;;;;;;;9.90;4.68;;;34.60;57.40;;;;;;5072675;28;20215;-82
2022/07/20 09:06:15;;;;;;;7.35;4.47;;;34.70;58.20;;;;;;5067716;28;20216;-83
2022/07/20 09:09:06;;;;;;;6.78;4.75;;;34.80;57.60;;;;;;5093468;28;20234;-82
2022/07/20 09:11:54;;;;;;;9.60;4.72;;;34.70;55.90;;;;;;5076958;28;20223;-82
2022/07/20 09:14:48;;;;;;;9.73;4.30;;;34.90;56.10;;;;;;5082971;28;20216;-86
2022/07/20 09:17:37;;;;;;;12.23;4.18;;;34.70;55.70;;;;;;5081919;28;20219;-84
2022/07/20 09:20:29;;;;;;;4.18;3.60;;;35.40;56.00;;;;;;5086281;28;20226;-79
2022/07/20 09:23:20;;;;;;;7.90;4.68;;;35.10;54.20;;;;;;5075526;28;20222;-82
2022/07/20 09:26:15;;;;;;;8.50;5.07;;;36.00;53.80;;;;;;5061181;28;20299;-79
2022/07/20 09:29:05;;;;;;;8.07;3.90;;;36.40;52.80;;;;;;5060668;28;20296;-79
2022/07/20 09:32:03;;;;;;;5.25;3.90;;;37.10;51.50;;;;;;5049236;28;20234;-84
2022/07/20 09:35:01;;;;;;;35.97;6.93;;;37.60;49.40;;;;;;5051179;28;20226;-79
2022/07/20 09:37:50;;;;;;;6.88;3.63;;;38.70;49.30;;;;;;5067554;28;20330;-83
2022/07/20 09:40:43;;;;;;;8.85;4.38;;;38.80;48.20;;;;;;5064751;28;20223;-84
2022/07/20 09:43:35;;;;;;;10.35;4.22;;;39.00;47.60;;;;;;5061375;28;20249;-80
2022/07/20 09:46:26;;;;;;;8.52;4.95;;;39.20;47.00;;;;;;5067027;28;20227;-83
2022/07/20 09:49:16;;;;;;;4.93;4.22;;;39.60;47.30;;;;;;5044973;28;20227;-78
2022/07/20 09:52:06;;;;;;;5.35;3.92;;;40.10;46.40;;;;;;5066065;28;20216;-83
2022/07/20 09:55:14;;;;;;;5.35;3.60;;;38.80;47.50;;;;;;5060405;28;20900;-78
2022/07/20 09:58:04;;;;;;;7.63;3.45;;;38.90;46.60;;;;;;5063870;28;20631;-79
2022/07/20 10:00:53;;;;;;;6.07;3.65;;;39.30;47.50;;;;;;5064016;28;20231;-80
2022/07/20 10:03:42;;;;;;;4.43;3.30;;;39.20;46.60;;;;;;5068501;28;20312;-83
2022/07/20 10:06:34;;;;;;;7.00;3.35;;;38.90;46.60;;;;;;5086034;28;20444;-80
2022/07/20 10:09:23;;;;;;;8.52;3.60;;;39.50;47.20;;;;;;5074450;28;20212;-80
2022/07/20 10:12:12;;;;;;;4.40;3.97;;;39.20;46.50;;;;;;5077407;28;20212;-78
2022/07/20 10:15:01;;;;;;;4.32;3.00;;;39.30;46.10;;;;;;5084729;28;20219;-78
2022/07/20 10:17:50;;;;;;;7.18;3.05;;;38.70;46.40;;;;;;5072228;28;20212;-78
2022/07/20 10:20:39;;;;;;;5.53;2.78;;;37.90;46.00;;;;;;5073147;28;20227;-87
2022/07/20 10:23:33;;;;;;;6.25;3.72;;;37.10;47.80;;;;;;5085843;28;20229;-86
2022/07/20 10:26:28;;;;;;;6.65;3.20;;;37.10;47.90;;;;;;5089568;28;20214;-85
2022/07/20 10:29:32;;;;;;;13.82;3.60;;;37.50;47.50;;;;;;5083397;28;20218;-84
2022/07/20 10:32:23;;;;;;;8.73;3.35;;;38.50;47.30;;;;;;5064172;28;20234;-78
2022/07/20 10:35:26;;;;;;;5.95;3.58;;;38.50;48.20;;;;;;5061619;28;20249;-78
2022/07/20 10:38:19;;;;;;;5.22;3.90;;;38.50;46.10;;;;;;5054459;28;20314;-76
2022/07/20 10:44:30;;;;;;;8.00;3.78;;;39.60;47.00;;;;;;5089603;28;20222;-82
2022/07/20 10:47:40;;;;;;;8.13;3.70;;;40.30;47.00;;;;;;5074463;28;20230;-80
2022/07/20 10:50:35;;;;;;;7.05;3.50;;;40.10;45.20;;;;;;5069402;28;20226;-86
2022/07/20 10:53:35;;;;;;;5.07;3.10;;;40.30;47.30;;;;;;5062943;28;20221;-79
2022/07/20 10:56:32;;;;;;;5.82;3.67;;;40.50;45.40;;;;;;5057371;28;20227;-84
2022/07/20 10:59:21;;;;;;;7.05;3.65;;;40.80;45.50;;;;;;5069655;28;20235;-81
2022/07/20 11:02:10;;;;;;;4.10;3.42;;;41.10;45.30;;;;;;5048789;28;20206;-79
2022/07/20 11:04:59;;;;;;;4.45;3.47;;;41.10;44.00;;;;;;5073367;28;20231;-76
2022/07/20 11:07:48;;;;;;;4.63;3.30;;;41.00;44.90;;;;;;5077109;28;20204;-80
2022/07/20 11:10:38;;;;;;;7.10;3.63;;;41.30;43.30;;;;;;5068170;28;20230;-79
2022/07/20 11:13:28;;;;;;;8.52;3.30;;;41.20;44.40;;;;;;5083061;28;21009;-81
2022/07/20 11:16:19;;;;;;;4.35;3.05;;;40.90;44.80;;;;;;5088533;28;20243;-82
2022/07/20 11:19:08;;;;;;;3.78;3.28;;;41.30;43.70;;;;;;5085898;28;20235;-80
2022/07/20 11:21:57;;;;;;;3.40;3.10;;;41.40;42.20;;;;;;5093312;28;20212;-81
2022/07/20 11:24:54;;;;;;;5.25;3.30;;;40.70;42.90;;;;;;5065506;28;20261;-77
2022/07/20 11:27:43;;;;;;;5.55;2.97;;;41.70;42.90;;;;;;5064396;28;20253;-81
2022/07/20 11:30:35;;;;;;;3.55;2.80;;;40.20;43.40;;;;;;5075454;28;20217;-80
2022/07/20 11:33:26;;;;;;;3.45;2.90;;;41.20;42.00;;;;;;5067801;28;20234;-80
2022/07/20 11:36:17;;;;;;;8.63;7.82;;;41.30;42.60;;;;;;5074648;28;20223;-81
2022/07/20 11:39:08;;;;;;;4.05;2.78;;;41.30;42.70;;;;;;5064632;28;20211;-81
2022/07/20 11:42:11;;;;;;;9.80;3.38;;;40.90;43.40;;;;;;5077919;28;20215;-81
2022/07/20 11:45:01;;;;;;;6.25;3.72;;;40.80;43.90;;;;;;5063405;28;20220;-79
2022/07/20 11:47:51;;;;;;;3.17;2.78;;;40.80;44.20;;;;;;5061887;28;20228;-80
2022/07/20 11:51:00;;;;;;;5.72;3.38;;;40.80;43.00;;;;;;5061852;28;20231;-79
2022/07/20 11:53:48;;;;;;;4.75;3.00;;;41.60;42.90;;;;;;5062691;28;20231;-77
2022/07/20 11:56:38;;;;;;;3.17;2.88;;;42.10;42.10;;;;;;5061306;28;20243;-80
2022/07/20 11:59:27;;;;;;;3.33;2.80;;;42.60;41.40;;;;;;5062726;28;20220;-81
2022/07/20 12:02:17;;;;;;;6.95;2.72;;;42.30;41.00;;;;;;5045135;28;20224;-81
2022/07/20 12:05:08;;;;;;;8.10;3.03;;;42.60;41.50;;;;;;5049249;28;20219;-80
2022/07/20 12:08:12;;;;;;;3.53;3.22;;;42.10;39.50;;;;;;5065090;28;20224;-80
2022/07/20 12:11:02;;;;;;;7.05;3.20;;;42.20;41.60;;;;;;5074566;28;20728;-81
2022/07/20 12:13:51;;;;;;;6.55;3.10;;;42.30;40.70;;;;;;5075346;28;21028;-80
2022/07/20 12:16:45;;;;;;;5.43;3.10;;;42.50;40.30;;;;;;5058387;28;20294;-77
2022/07/20 12:19:35;;;;;;;9.10;3.40;;;43.20;40.20;;;;;;5044596;28;20227;-77
2022/07/20 12:22:28;;;;;;;6.85;3.05;;;43.10;39.20;;;;;;5057582;28;20223;-78
2022/07/20 12:25:17;;;;;;;5.80;2.70;;;42.30;39.30;;;;;;5049559;28;20226;-82
2022/07/20 12:28:07;;;;;;;6.38;3.15;;;40.80;41.10;;;;;;5061024;28;20215;-84
2022/07/20 12:31:18;;;;;;;5.28;3.00;;;40.50;42.20;;;;;;5043177;28;20219;-80
2022/07/20 12:34:09;;;;;;;5.10;2.60;;;39.80;42.90;;;;;;5055293;28;20227;-83
2022/07/20 12:36:57;;;;;;;3.08;2.78;;;39.40;43.60;;;;;;5057850;28;20725;-83
2022/07/20 12:39:53;;;;;;;3.85;3.10;;;38.70;44.00;;;;;;5060502;28;20227;-82
2022/07/20 12:42:42;;;;;;;5.53;3.25;;;39.00;45.50;;;;;;5059106;28;20938;-93
2022/07/20 12:45:31;;;;;;;3.30;3.00;;;39.10;45.00;;;;;;5067641;28;20224;-76
2022/07/20 12:48:20;;;;;;;3.75;3.25;;;38.60;45.00;;;;;;5057847;28;20233;-77
2022/07/20 12:51:10;;;;;;;3.88;3.00;;;38.20;46.40;;;;;;5057748;28;20224;-84
2022/07/20 12:53:58;;;;;;;4.30;2.60;;;37.10;46.60;;;;;;5049736;28;20328;-83
2022/07/20 12:56:49;;;;;;;5.45;3.08;;;35.80;47.60;;;;;;5062177;28;20228;-82
2022/07/20 12:59:37;;;;;;;3.63;3.30;;;34.70;49.30;;;;;;5044789;28;20277;-78
2022/07/20 13:02:27;;;;;;;3.13;2.60;;;34.10;50.10;;;;;;5046625;28;20259;-81
2022/07/20 13:05:16;;;;;;;3.50;3.20;;;33.90;51.20;;;;;;5060950;28;20676;-77
2022/07/20 13:08:05;;;;;;;3.53;2.95;;;33.70;50.70;;;;;;5063378;28;20728;-83
2022/07/20 13:10:54;;;;;;;5.13;3.33;;;33.80;50.80;;;;;;5059499;28;20325;-81
2022/07/20 13:13:44;;;;;;;4.35;3.20;;;33.80;51.60;;;;;;5062818;28;20228;-79
2022/07/20 13:16:34;;;;;;;4.25;3.00;;;33.50;51.60;;;;;;5061227;28;20924;-80
2022/07/20 13:19:24;;;;;;;9.23;4.82;;;33.30;51.70;;;;;;5048098;28;20227;-79
2022/07/20 13:22:14;;;;;;;3.75;3.35;;;33.40;53.10;;;;;;5045190;28;20227;-78
2022/07/20 13:25:03;;;;;;;13.73;5.28;;;33.20;51.10;;;;;;5062525;28;20216;-79
2022/07/20 13:27:52;;;;;;;3.63;3.00;;;32.90;51.70;;;;;;5070298;28;20212;-78
2022/07/20 13:30:43;;;;;;;7.40;3.88;;;32.70;52.00;;;;;;5073270;28;20314;-80
2022/07/20 13:33:31;;;;;;;31.88;12.25;;;32.90;53.30;;;;;;5058874;28;20768;-77
2022/07/20 13:36:20;;;;;;;13.02;4.53;;;33.10;54.00;;;;;;5058933;28;20242;-80
2022/07/20 13:39:09;;;;;;;5.10;3.25;;;32.70;52.20;;;;;;5057377;28;20226;-78
2022/07/20 13:41:58;;;;;;;9.00;3.70;;;32.20;53.00;;;;;;5063803;28;20252;-87
2022/07/20 13:44:47;;;;;;;4.45;3.00;;;32.10;53.40;;;;;;5049764;28;20219;-89
2022/07/20 13:47:39;;;;;;;6.50;3.30;;;32.10;53.50;;;;;;5066885;28;20254;-80
2022/07/20 13:50:28;;;;;;;4.78;3.47;;;32.30;53.90;;;;;;5051843;28;20226;-80
2022/07/20 13:53:37;;;;;;;6.07;3.20;;;32.10;53.70;;;;;;5058545;28;20222;-80
2022/07/20 13:56:30;;;;;;;3.50;3.20;;;31.60;53.90;;;;;;5053799;28;21005;-84
2022/07/20 13:59:18;;;;;;;5.05;3.70;;;31.40;54.60;;;;;;5057732;28;20254;-79
2022/07/20 14:02:08;;;;;;;4.72;3.00;;;31.40;54.70;;;;;;5055634;28;20677;-78
2022/07/20 14:04:58;;;;;;;5.65;3.50;;;31.30;54.60;;;;;;5057650;28;20220;-79
2022/07/20 14:07:47;;;;;;;4.55;3.20;;;31.40;54.70;;;;;;5058055;28;20234;-79
2022/07/20 14:10:35;;;;;;;6.10;3.40;;;31.30;55.00;;;;;;5069520;28;20718;-78
2022/07/20 14:13:25;;;;;;;3.63;3.05;;;31.40;55.30;;;;;;5059185;28;20215;-79
2022/07/20 14:16:13;;;;;;;3.90;2.83;;;31.40;55.10;;;;;;5058648;28;20239;-81
2022/07/20 14:19:02;;;;;;;4.13;3.00;;;31.10;55.30;;;;;;5039547;28;20219;-78
2022/07/20 14:21:52;;;;;;;4.72;3.17;;;31.00;56.10;;;;;;5058004;28;20246;-78
2022/07/20 14:24:41;;;;;;;6.55;3.55;;;31.10;56.00;;;;;;5054326;28;20245;-80
2022/07/20 14:27:30;;;;;;;5.57;3.60;;;31.30;56.20;;;;;;5058430;28;20224;-81
2022/07/20 14:30:19;;;;;;;4.97;3.40;;;31.40;56.40;;;;;;5061293;28;20230;-78
2022/07/20 14:33:07;;;;;;;7.55;3.30;;;31.30;56.10;;;;;;5051042;28;20262;-79
2022/07/20 14:35:56;;;;;;;5.72;3.97;;;31.50;56.70;;;;;;5056359;28;20714;-81
2022/07/20 14:38:46;;;;;;;4.88;4.00;;;31.40;57.30;;;;;;5042127;28;20223;-78
2022/07/20 14:41:36;;;;;;;8.63;4.10;;;31.30;57.70;;;;;;5056777;28;20302;-77
2022/07/20 14:44:26;;;;;;;5.63;3.90;;;31.30;58.40;;;;;;5054193;28;20220;-78
2022/07/20 14:47:15;;;;;;;6.68;4.03;;;31.30;57.70;;;;;;5055568;28;20223;-78
2022/07/20 15:03:42;;;;;;;4.60;3.17;;;31.10;57.10;;;;;;5054141;28;20271;-78